New Sharon, Maine
Current Conditions -  °F | °C
As of 3:55 AM on Saturday 25 Oct 2014 (Local Time) from KWVL Reporting Station
Overcast Overcast  
Wind Chill: 46°   Ceiling: 7000
Heat Index: 48°   Visibility: 10mi
Dew Point: 30°   Wind: 6mph
Humidity: 50%   Direction: 290°WNW
Pressure: 29.64"   Gusts: NA
Location:  44.64°N, 70.02°W
Report Text: KWVL 250755Z 29005KT 10SM OVC070 09/M01 A2964 RMK AO1
Loading
Personal Weather Stations






























Interactive Weather Map
Tropical Storm Tracking
New forecast layout! Learn more

10-Day Weather Forecast

Advertisements
Track Severe Weather on mobile